createdAt,value
2017-08-06T00:01:57.069Z,92.70
2017-08-06T00:04:25.330Z,93.00
2017-08-06T00:06:53.697Z,92.90
2017-08-06T00:09:21.447Z,92.80
2017-08-06T00:11:48.970Z,92.40
2017-08-06T00:14:17.232Z,91.80
2017-08-06T00:16:44.766Z,91.80
2017-08-06T00:19:13.006Z,91.60
2017-08-06T00:21:40.573Z,91.60
2017-08-06T00:24:08.850Z,91.30
2017-08-06T00:26:36.338Z,91.30
2017-08-06T00:29:03.819Z,91.30
2017-08-06T00:31:31.375Z,91.50
2017-08-06T00:33:59.116Z,91.30
2017-08-06T00:36:27.375Z,91.40
2017-08-06T00:38:55.633Z,91.70
2017-08-06T00:41:26.963Z,92.00
2017-08-06T00:43:55.203Z,92.30
2017-08-06T00:46:22.778Z,92.30
2017-08-06T00:48:50.514Z,92.80
2017-08-06T00:51:18.762Z,92.90
2017-08-06T00:53:46.238Z,92.90
2017-08-06T00:56:13.727Z,93.00
2017-08-06T00:58:41.203Z,92.70
2017-08-06T01:01:09.462Z,92.90
2017-08-06T01:03:37.826Z,93.00
2017-08-06T01:06:06.087Z,92.90
2017-08-06T01:08:34.327Z,92.90
2017-08-06T01:11:01.899Z,92.90
2017-08-06T01:13:29.422Z,93.00
2017-08-06T01:15:57.686Z,92.80
2017-08-06T01:18:26.151Z,93.10
2017-08-06T01:20:54.415Z,93.20
2017-08-06T01:23:21.967Z,93.20
2017-08-06T01:25:49.502Z,92.90
2017-08-06T01:28:17.758Z,93.10
2017-08-06T01:30:46.042Z,93.00
2017-08-06T01:33:13.570Z,92.90
2017-08-06T01:35:41.070Z,93.00
2017-08-06T01:38:08.542Z,93.00
2017-08-06T01:40:36.781Z,93.00
2017-08-06T01:43:04.350Z,93.00
2017-08-06T01:45:32.619Z,93.10
2017-08-06T01:48:00.155Z,93.10
2017-08-06T01:50:28.515Z,92.90
2017-08-06T01:52:56.758Z,92.90
2017-08-06T01:55:25.047Z,93.00
2017-08-06T01:57:52.542Z,92.90
2017-08-06T02:00:20.486Z,92.80
2017-08-06T02:02:48.098Z,93.00
2017-08-06T02:05:15.623Z,93.10
2017-08-06T02:07:43.881Z,93.10
2017-08-06T02:10:12.243Z,93.10
2017-08-06T02:12:39.722Z,93.10
2017-08-06T02:15:07.957Z,93.20
2017-08-06T02:17:35.522Z,93.20
2017-08-06T02:20:03.761Z,93.20
2017-08-06T02:22:31.326Z,93.20
2017-08-06T02:24:59.690Z,93.10
2017-08-06T02:27:27.927Z,93.00
2017-08-06T02:29:55.495Z,93.00
2017-08-06T02:32:23.766Z,93.20
2017-08-06T02:34:52.002Z,93.30
2017-08-06T02:37:20.293Z,93.40
2017-08-06T02:39:47.823Z,93.40
2017-08-06T02:42:15.365Z,93.40
2017-08-06T02:44:43.623Z,93.30
2017-08-06T02:47:12.086Z,93.30
2017-08-06T02:49:40.359Z,93.20
2017-08-06T02:52:07.887Z,93.20
2017-08-06T02:54:35.434Z,93.20
2017-08-06T02:57:03.762Z,93.30
2017-08-06T02:59:31.340Z,93.30
2017-08-06T03:01:59.602Z,93.40
2017-08-06T03:04:28.165Z,93.50
2017-08-06T03:06:56.408Z,93.70
2017-08-06T03:09:23.971Z,93.70
2017-08-06T03:11:51.549Z,93.70
2017-08-06T03:14:19.793Z,93.80
2017-08-06T03:16:47.359Z,93.70
2017-08-06T03:19:15.714Z,93.80
2017-08-06T03:21:44.181Z,93.80
2017-08-06T03:24:12.418Z,93.90
2017-08-06T03:26:39.889Z,93.90
2017-08-06T03:29:07.426Z,93.90
2017-08-06T03:31:35.687Z,93.70
2017-08-06T03:34:03.942Z,93.60
2017-08-06T03:36:32.319Z,93.60
2017-08-06T03:38:59.850Z,93.50
2017-08-06T03:41:28.110Z,93.70
2017-08-06T03:43:55.858Z,93.70
2017-08-06T03:46:23.347Z,93.50
2017-08-06T03:48:50.822Z,93.70
2017-08-06T03:51:18.394Z,93.60
2017-08-06T03:53:45.867Z,93.80
2017-08-06T03:56:13.343Z,93.70
2017-08-06T03:58:40.831Z,94.20
2017-08-06T04:01:08.362Z,94.10
2017-08-06T04:03:36.926Z,94.30
2017-08-06T04:06:05.190Z,94.40
2017-08-06T04:08:32.732Z,94.40
2017-08-06T04:11:00.998Z,94.50
2017-08-06T04:13:28.479Z,94.50
2017-08-06T04:15:55.958Z,94.70
2017-08-06T04:18:23.458Z,94.70
2017-08-06T04:20:51.127Z,94.70
2017-08-06T04:23:18.732Z,94.80
2017-08-06T04:25:46.207Z,94.80
2017-08-06T04:28:14.693Z,95.20
2017-08-06T04:30:42.230Z,94.90
2017-08-06T04:33:10.474Z,94.90
2017-08-06T04:35:38.041Z,94.90
2017-08-06T04:38:06.302Z,95.00
2017-08-06T04:40:34.570Z,95.00
2017-08-06T04:43:02.310Z,95.00
2017-08-06T04:45:30.588Z,94.70
2017-08-06T04:47:58.118Z,94.70
2017-08-06T04:50:25.658Z,94.70
2017-08-06T04:52:53.922Z,95.00
2017-08-06T04:55:21.400Z,95.00
2017-08-06T04:57:49.006Z,95.00
2017-08-06T05:00:17.370Z,94.90
2017-08-06T05:02:45.630Z,94.90
2017-08-06T05:05:14.094Z,95.00
2017-08-06T05:07:42.354Z,95.10
2017-08-06T05:10:10.598Z,95.10
2017-08-06T05:12:38.962Z,95.20
2017-08-06T05:15:07.206Z,95.30
2017-08-06T05:17:35.482Z,95.00
2017-08-06T05:20:03.946Z,95.30
2017-08-06T05:22:32.190Z,95.40
2017-08-06T05:24:59.750Z,95.40
2017-08-06T05:27:28.218Z,95.60
2017-08-06T05:29:55.696Z,95.60
2017-08-06T05:32:23.176Z,95.60
2017-08-06T05:34:50.686Z,95.80
2017-08-06T05:37:18.185Z,96.10
2017-08-06T05:39:45.678Z,96.10
2017-08-06T05:42:13.375Z,96.00
2017-08-06T05:44:41.616Z,96.20
2017-08-06T05:47:09.082Z,96.20
2017-08-06T05:49:36.682Z,96.20
2017-08-06T05:52:04.154Z,96.30
2017-08-06T05:54:32.390Z,96.30
2017-08-06T05:56:59.963Z,96.30
2017-08-06T05:59:28.354Z,96.40
2017-08-06T06:01:55.846Z,96.40
2017-08-06T06:04:23.329Z,96.30
2017-08-06T06:06:51.606Z,96.60
2017-08-06T06:09:19.122Z,96.60
2017-08-06T06:11:47.362Z,96.30
2017-08-06T06:14:14.930Z,96.30
2017-08-06T06:16:43.166Z,96.20
2017-08-06T06:19:10.641Z,96.20
2017-08-06T06:21:38.130Z,96.20
2017-08-06T06:24:05.720Z,96.20
2017-08-06T06:26:33.958Z,96.10
2017-08-06T06:29:01.434Z,96.10
2017-08-06T06:31:28.966Z,95.70
2017-08-06T06:33:57.431Z,96.10
2017-08-06T06:36:25.669Z,96.10
2017-08-06T06:38:53.927Z,96.40
2017-08-06T06:41:22.320Z,96.20
2017-08-06T06:43:49.857Z,95.90
2017-08-06T06:46:18.094Z,95.40
2017-08-06T06:48:45.867Z,95.40
2017-08-06T06:51:14.106Z,94.90
2017-08-06T06:53:41.676Z,95.00
2017-08-06T06:56:09.518Z,95.00
2017-08-06T06:58:37.755Z,94.40
2017-08-06T07:01:05.227Z,94.40
2017-08-06T07:03:32.766Z,94.40
2017-08-06T07:06:01.027Z,93.60
2017-08-06T07:08:29.265Z,93.80
2017-08-06T07:10:56.831Z,93.80
2017-08-06T07:13:24.524Z,93.50
2017-08-06T07:15:52.791Z,93.80
2017-08-06T07:18:20.326Z,93.70
2017-08-06T07:20:48.078Z,93.40
2017-08-06T07:23:16.338Z,93.10
2017-08-06T07:25:44.566Z,93.10
2017-08-06T07:28:12.051Z,93.10
2017-08-06T07:30:39.513Z,93.20
2017-08-06T07:33:07.003Z,92.50
2017-08-06T07:35:34.558Z,92.30
2017-08-06T07:38:02.791Z,91.60
2017-08-06T07:40:30.258Z,91.60
2017-08-06T07:42:58.732Z,91.70
2017-08-06T07:45:26.974Z,92.00
2017-08-06T07:47:54.679Z,91.90
2017-08-06T07:50:22.383Z,91.40
2017-08-06T07:52:50.622Z,91.40
2017-08-06T07:55:18.114Z,91.40
2017-08-06T07:57:45.784Z,90.90
2017-08-06T08:00:13.253Z,89.90
2017-08-06T08:02:40.806Z,89.20
2017-08-06T08:05:09.187Z,89.00
2017-08-06T08:07:37.442Z,87.90
2017-08-06T08:10:05.682Z,87.60
2017-08-06T08:12:33.207Z,87.60
2017-08-06T08:15:01.439Z,85.60
2017-08-06T08:17:29.012Z,85.60
2017-08-06T08:19:57.366Z,85.80
2017-08-06T08:22:25.611Z,86.20
2017-08-06T08:24:53.086Z,86.30
2017-08-06T08:27:20.618Z,86.40
2017-08-06T08:29:49.075Z,85.50
2017-08-06T08:32:17.307Z,85.70
2017-08-06T08:34:44.778Z,85.20
2017-08-06T08:37:13.058Z,82.20
2017-08-06T08:39:40.523Z,82.10
2017-08-06T08:42:08.021Z,81.10
2017-08-06T08:44:36.394Z,80.80
2017-08-06T08:47:03.866Z,80.80
2017-08-06T08:49:31.353Z,79.10
2017-08-06T08:51:58.910Z,81.00
2017-08-06T08:54:27.154Z,78.20
2017-08-06T08:56:54.627Z,78.10
2017-08-06T08:59:22.121Z,73.50
2017-08-06T09:01:49.586Z,72.50
2017-08-06T09:04:17.147Z,71.20
2017-08-06T09:06:45.379Z,74.40
2017-08-06T09:09:12.951Z,74.40
2017-08-06T09:11:41.211Z,71.40
2017-08-06T09:14:08.773Z,71.20
2017-08-06T09:16:36.289Z,71.70
2017-08-06T09:19:04.522Z,70.00
2017-08-06T09:21:32.018Z,70.00
2017-08-06T09:23:59.534Z,72.20
2017-08-06T09:26:27.770Z,69.70
2017-08-06T09:28:55.451Z,69.70
2017-08-06T09:31:23.012Z,72.60
2017-08-06T09:33:50.498Z,72.90
2017-08-06T09:36:17.982Z,72.20
2017-08-06T09:38:45.522Z,67.90
2017-08-06T09:41:12.985Z,68.20
2017-08-06T09:43:40.502Z,68.90
2017-08-06T09:46:07.974Z,68.10
2017-08-06T09:48:35.449Z,64.60
2017-08-06T09:51:02.969Z,64.10
2017-08-06T09:53:30.427Z,62.10
2017-08-06T09:55:58.840Z,60.30
2017-08-06T09:58:26.338Z,64.00
2017-08-06T10:00:53.921Z,61.10
2017-08-06T10:03:22.164Z,61.80
2017-08-06T10:05:49.728Z,61.80
2017-08-06T10:08:17.983Z,58.70
2017-08-06T10:10:46.210Z,59.90
2017-08-06T10:13:13.680Z,59.80
2017-08-06T10:15:41.254Z,59.80
2017-08-06T10:18:09.513Z,56.40
2017-08-06T10:20:37.778Z,56.80
2017-08-06T10:23:06.215Z,58.10
2017-08-06T10:25:33.683Z,58.00
2017-08-06T10:28:01.942Z,59.80
2017-08-06T10:30:29.486Z,59.80
2017-08-06T10:32:57.756Z,57.50
2017-08-06T10:35:25.233Z,57.50
2017-08-06T10:37:52.734Z,55.10
2017-08-06T10:40:20.989Z,57.30
2017-08-06T10:42:49.255Z,57.30
2017-08-06T10:45:17.477Z,59.10
2017-08-06T10:47:44.982Z,59.00
2017-08-06T10:50:12.443Z,55.60
2017-08-06T10:52:39.898Z,55.60
2017-08-06T10:55:07.578Z,51.50
2017-08-06T10:57:35.806Z,52.90
2017-08-06T11:00:03.274Z,52.90
2017-08-06T11:02:31.746Z,54.90
2017-08-06T11:04:59.970Z,55.70
2017-08-06T11:07:27.463Z,55.70
2017-08-06T11:09:55.000Z,54.90
2017-08-06T11:12:22.578Z,55.50
2017-08-06T11:14:50.310Z,53.80
2017-08-06T11:17:18.580Z,52.00
2017-08-06T11:19:46.114Z,52.00
2017-08-06T11:22:14.686Z,51.70
2017-08-06T11:24:42.918Z,52.60
2017-08-06T11:27:10.486Z,52.60
2017-08-06T11:29:38.738Z,50.60
2017-08-06T11:32:06.998Z,46.30
2017-08-06T11:34:35.230Z,46.00
2017-08-06T11:37:02.910Z,46.00
2017-08-06T11:39:31.134Z,46.90
2017-08-06T11:41:58.624Z,46.90
2017-08-06T11:44:26.102Z,42.90
2017-08-06T11:46:53.601Z,41.30
2017-08-06T11:49:21.966Z,39.60
2017-08-06T11:51:49.510Z,39.50
2017-08-06T11:54:16.982Z,40.60
2017-08-06T11:56:44.446Z,40.20
2017-08-06T11:59:12.134Z,39.40
2017-08-06T12:01:40.367Z,37.70
2017-08-06T12:04:07.930Z,37.70
2017-08-06T12:06:36.243Z,37.60
2017-08-06T12:09:03.697Z,37.50
2017-08-06T12:11:31.270Z,40.50
2017-08-06T12:13:59.503Z,41.40
2017-08-06T12:16:27.076Z,41.30
2017-08-06T12:18:55.538Z,39.10
2017-08-06T12:21:23.786Z,40.10
2017-08-06T12:23:51.248Z,40.10
2017-08-06T12:26:19.539Z,35.20
2017-08-06T12:28:47.050Z,35.20
2017-08-06T12:31:15.410Z,34.60
2017-08-06T12:33:43.981Z,34.10
2017-08-06T12:36:12.237Z,33.10
2017-08-06T12:38:40.473Z,32.10
2017-08-06T12:41:07.971Z,32.00
2017-08-06T12:43:35.482Z,32.40
2017-08-06T12:46:03.714Z,36.70
2017-08-06T12:48:31.382Z,36.60
2017-08-06T12:50:59.613Z,36.30
2017-08-06T12:53:27.091Z,36.20
2017-08-06T12:55:55.493Z,32.40
2017-08-06T12:58:23.146Z,32.30
2017-08-06T13:00:50.618Z,30.00
2017-08-06T13:03:18.406Z,28.90
2017-08-06T13:05:45.938Z,30.30
2017-08-06T13:08:14.171Z,34.20
2017-08-06T13:10:41.818Z,34.20
2017-08-06T13:13:09.285Z,32.90
2017-08-06T13:15:36.777Z,35.40
2017-08-06T13:18:04.814Z,34.70
2017-08-06T13:20:33.047Z,31.70
2017-08-06T13:23:00.523Z,31.60
2017-08-06T13:25:29.002Z,29.70
2017-08-06T13:27:56.546Z,29.70
2017-08-06T13:30:24.178Z,30.50
2017-08-06T13:32:51.763Z,32.20
2017-08-06T13:35:19.294Z,30.00
2017-08-06T13:37:46.810Z,28.90
2017-08-06T13:40:15.175Z,27.20
2017-08-06T13:42:43.398Z,27.80
2017-08-06T13:45:10.867Z,27.80
2017-08-06T13:47:39.330Z,27.10
2017-08-06T13:50:07.597Z,28.20
2017-08-06T13:52:35.859Z,27.90
2017-08-06T13:55:04.324Z,29.10
2017-08-06T13:57:32.551Z,28.90
2017-08-06T14:00:00.123Z,28.90
2017-08-06T14:02:28.525Z,31.30
2017-08-06T14:04:55.998Z,31.30
2017-08-06T14:07:23.475Z,28.40
2017-08-06T14:09:51.742Z,27.30
2017-08-06T14:12:19.250Z,27.40
2017-08-06T14:14:46.886Z,27.20
2017-08-06T14:17:15.134Z,24.70
2017-08-06T14:19:42.689Z,24.70
2017-08-06T14:22:10.922Z,25.90
2017-08-06T14:24:38.382Z,26.00
2017-08-06T14:27:06.860Z,27.40
2017-08-06T14:29:35.122Z,28.10
2017-08-06T14:32:03.341Z,28.50
2017-08-06T14:34:30.914Z,28.50
2017-08-06T14:36:59.142Z,25.70
2017-08-06T14:39:26.830Z,25.60
2017-08-06T14:41:55.077Z,26.50
2017-08-06T14:44:23.446Z,26.70
2017-08-06T14:46:51.805Z,27.20
2017-08-06T14:49:20.086Z,25.90
2017-08-06T14:51:47.618Z,25.40
2017-08-06T14:54:15.979Z,26.10
2017-08-06T14:56:44.337Z,25.60
2017-08-06T14:59:12.571Z,27.00
2017-08-06T15:01:40.246Z,26.50
2017-08-06T15:04:08.470Z,27.80
2017-08-06T15:06:35.935Z,27.70
2017-08-06T15:09:03.491Z,26.70
2017-08-06T15:11:30.954Z,26.80
2017-08-06T15:13:59.230Z,27.00
2017-08-06T15:16:27.491Z,26.40
2017-08-06T15:18:55.747Z,26.70
2017-08-06T15:21:24.206Z,25.70
2017-08-06T15:23:52.466Z,25.60
2017-08-06T15:26:20.699Z,24.30
2017-08-06T15:28:48.270Z,24.30
2017-08-06T15:31:16.534Z,24.70
2017-08-06T15:33:44.790Z,25.10
2017-08-06T15:36:13.155Z,24.90
2017-08-06T15:38:41.414Z,24.90
2017-08-06T15:41:09.648Z,24.90
2017-08-06T15:43:37.417Z,24.90
2017-08-06T15:46:05.683Z,24.30
2017-08-06T15:48:33.948Z,25.80
2017-08-06T15:51:02.322Z,27.30
2017-08-06T15:53:29.856Z,27.30
2017-08-06T15:55:58.083Z,30.60
2017-08-06T15:58:25.658Z,30.50
2017-08-06T16:00:53.904Z,30.40
2017-08-06T16:03:22.139Z,31.00
2017-08-06T16:05:49.625Z,30.90
2017-08-06T16:08:17.163Z,28.60
2017-08-06T16:10:45.414Z,25.70
2017-08-06T16:13:13.143Z,25.10
2017-08-06T16:15:40.706Z,24.70
2017-08-06T16:18:08.166Z,23.60
2017-08-06T16:20:35.671Z,21.60
2017-08-06T16:23:03.210Z,21.70
2017-08-06T16:25:30.679Z,21.60
2017-08-06T16:27:58.198Z,21.10
2017-08-06T16:30:25.741Z,21.20
2017-08-06T16:32:53.982Z,22.30
2017-08-06T16:35:21.473Z,22.30
2017-08-06T16:37:48.933Z,22.60
2017-08-06T16:40:16.429Z,23.10
2017-08-06T16:42:44.706Z,23.40
2017-08-06T16:45:12.173Z,23.30
2017-08-06T16:47:39.670Z,24.40
2017-08-06T16:50:08.130Z,24.30
2017-08-06T16:52:36.398Z,25.10
2017-08-06T16:55:04.626Z,24.30
2017-08-06T16:57:32.126Z,24.20
2017-08-06T16:59:59.650Z,24.70
2017-08-06T17:02:27.198Z,24.60
2017-08-06T17:04:54.941Z,24.10
2017-08-06T17:07:22.418Z,23.70
2017-08-06T17:09:49.915Z,24.10
2017-08-06T17:12:17.398Z,23.30
2017-08-06T17:14:44.865Z,23.80
2017-08-06T17:17:12.470Z,23.90
2017-08-06T17:19:40.742Z,25.00
2017-08-06T17:22:08.273Z,24.90
2017-08-06T17:24:36.634Z,25.30
2017-08-06T17:27:04.858Z,25.40
2017-08-06T17:29:32.327Z,25.40
2017-08-06T17:32:00.706Z,27.70
2017-08-06T17:34:28.962Z,27.60
2017-08-06T17:36:57.246Z,27.00
2017-08-06T17:39:24.966Z,26.90
2017-08-06T17:41:53.199Z,27.90
2017-08-06T17:44:20.662Z,27.90
2017-08-06T17:46:49.034Z,27.50
2017-08-06T17:49:17.294Z,28.30
2017-08-06T17:51:45.555Z,27.50
2017-08-06T17:54:13.832Z,27.30
2017-08-06T17:56:41.291Z,27.30
2017-08-06T17:59:08.754Z,28.00
2017-08-06T18:01:36.234Z,29.80
2017-08-06T18:04:04.602Z,31.40
2017-08-06T18:06:32.835Z,32.90
2017-08-06T18:09:00.298Z,32.90
2017-08-06T18:11:28.035Z,35.30
2017-08-06T18:13:56.392Z,37.50
2017-08-06T18:16:24.762Z,38.80
2017-08-06T18:18:53.126Z,39.30
2017-08-06T18:21:21.355Z,39.40
2017-08-06T18:23:48.822Z,39.40
2017-08-06T18:26:17.058Z,41.00
2017-08-06T18:28:44.518Z,41.00
2017-08-06T18:31:12.985Z,42.70
2017-08-06T18:33:41.223Z,43.20
2017-08-06T18:36:08.705Z,43.20
2017-08-06T18:38:36.210Z,43.70
2017-08-06T18:41:03.678Z,43.60
2017-08-06T18:43:31.939Z,44.30
2017-08-06T18:46:00.402Z,44.90
2017-08-06T18:48:28.667Z,46.70
2017-08-06T18:50:56.181Z,47.30
2017-08-06T18:53:23.794Z,47.70
2017-08-06T18:55:51.294Z,48.80
2017-08-06T18:58:19.555Z,48.80
2017-08-06T19:00:47.818Z,49.80
2017-08-06T19:03:15.286Z,49.80
2017-08-06T19:05:42.778Z,50.50
2017-08-06T19:08:10.339Z,50.90
2017-08-06T19:10:38.594Z,51.70
2017-08-06T19:13:06.195Z,51.70
2017-08-06T19:15:34.434Z,52.50
2017-08-06T19:18:01.902Z,52.50
2017-08-06T19:20:30.342Z,53.00
2017-08-06T19:22:57.901Z,53.00
2017-08-06T19:25:26.187Z,53.60
2017-08-06T19:27:53.911Z,53.60
2017-08-06T19:30:22.142Z,56.30
2017-08-06T19:32:49.602Z,56.30
2017-08-06T19:35:17.974Z,55.80
2017-08-06T19:37:46.205Z,55.70
2017-08-06T19:40:13.691Z,55.70
2017-08-06T19:42:41.174Z,55.60
2017-08-06T19:45:08.638Z,55.50
2017-08-06T19:47:37.126Z,56.30
2017-08-06T19:50:05.402Z,56.40
2017-08-06T19:52:32.930Z,56.40
2017-08-06T19:55:01.294Z,56.30
2017-08-06T19:57:29.518Z,56.10
2017-08-06T19:59:56.990Z,56.10
2017-08-06T20:02:25.458Z,56.60
2017-08-06T20:04:53.682Z,57.00
2017-08-06T20:07:21.161Z,57.00
2017-08-06T20:09:49.512Z,58.00
2017-08-06T20:12:17.778Z,58.20
2017-08-06T20:14:46.042Z,58.10
2017-08-06T20:17:14.434Z,58.40
2017-08-06T20:19:41.897Z,58.40
2017-08-06T20:22:09.354Z,58.40
2017-08-06T20:24:36.854Z,58.70
2017-08-06T20:27:04.323Z,59.40
2017-08-06T20:29:31.783Z,60.30
2017-08-06T20:31:59.342Z,61.30
2017-08-06T20:34:27.621Z,62.30
2017-08-06T20:36:56.019Z,63.30
2017-08-06T20:39:23.523Z,63.30
2017-08-06T20:41:51.754Z,64.30
2017-08-06T20:44:19.259Z,64.30
2017-08-06T20:46:46.762Z,64.60
2017-08-06T20:49:15.021Z,64.90
2017-08-06T20:51:43.300Z,64.80
2017-08-06T20:54:10.767Z,64.80
2017-08-06T20:56:38.225Z,65.10
2017-08-06T20:59:05.710Z,65.10
2017-08-06T21:01:33.969Z,66.50
2017-08-06T21:04:02.235Z,66.90
2017-08-06T21:06:30.659Z,67.40
2017-08-06T21:08:58.122Z,67.30
2017-08-06T21:11:25.613Z,67.70
2017-08-06T21:13:53.142Z,67.70
2017-08-06T21:16:21.411Z,67.70
2017-08-06T21:18:48.946Z,67.60
2017-08-06T21:21:17.302Z,68.60
2017-08-06T21:23:45.575Z,68.90
2017-08-06T21:26:13.043Z,68.90
2017-08-06T21:28:40.678Z,69.20
2017-08-06T21:31:08.139Z,69.30
2017-08-06T21:33:35.659Z,69.50
2017-08-06T21:36:03.297Z,70.20
2017-08-06T21:38:30.834Z,70.50
2017-08-06T21:40:58.390Z,70.70
2017-08-06T21:43:26.120Z,71.10
2017-08-06T21:45:54.351Z,71.50
2017-08-06T21:48:21.822Z,71.40
2017-08-06T21:50:50.082Z,73.20
2017-08-06T21:53:18.347Z,73.20
2017-08-06T21:55:46.802Z,73.40
2017-08-06T21:58:15.039Z,73.70
2017-08-06T22:00:42.606Z,73.70
2017-08-06T22:03:10.983Z,73.80
2017-08-06T22:05:38.518Z,73.60
2017-08-06T22:08:06.752Z,73.70
2017-08-06T22:10:34.423Z,73.70
2017-08-06T22:13:01.899Z,73.80
2017-08-06T22:15:29.471Z,74.30
2017-08-06T22:17:57.215Z,73.60
2017-08-06T22:20:24.757Z,74.60
2017-08-06T22:22:52.224Z,74.90
2017-08-06T22:25:20.007Z,75.10
2017-08-06T22:27:47.482Z,75.30
2017-08-06T22:30:15.742Z,76.40
2017-08-06T22:32:44.005Z,77.00
2017-08-06T22:35:12.252Z,77.00
2017-08-06T22:37:40.527Z,77.20
2017-08-06T22:40:08.986Z,76.80
2017-08-06T22:42:37.220Z,76.90
2017-08-06T22:45:04.687Z,76.90
2017-08-06T22:47:32.961Z,77.20
2017-08-06T22:50:00.502Z,77.20
2017-08-06T22:52:28.046Z,77.60
2017-08-06T22:54:55.685Z,77.50
2017-08-06T22:57:24.144Z,77.80
2017-08-06T22:59:52.379Z,77.90
2017-08-06T23:02:19.858Z,77.80
2017-08-06T23:04:48.314Z,78.20
2017-08-06T23:07:16.552Z,78.40
2017-08-06T23:09:44.118Z,78.30
2017-08-06T23:12:11.803Z,79.20
2017-08-06T23:14:39.278Z,79.40
2017-08-06T23:17:06.744Z,79.60
2017-08-06T23:19:34.226Z,79.70
2017-08-06T23:22:02.513Z,80.20
2017-08-06T23:24:29.995Z,80.20
2017-08-06T23:26:57.579Z,80.30
2017-08-06T23:29:25.079Z,80.10
2017-08-06T23:31:52.558Z,79.90
2017-08-06T23:34:20.798Z,80.40
2017-08-06T23:36:48.285Z,80.20
2017-08-06T23:39:15.750Z,80.10
2017-08-06T23:41:43.346Z,80.20
2017-08-06T23:44:11.578Z,80.20
2017-08-06T23:46:39.142Z,80.00
2017-08-06T23:49:07.408Z,80.30
2017-08-06T23:51:35.639Z,80.30
2017-08-06T23:54:03.156Z,80.20
2017-08-06T23:56:30.656Z,80.50
2017-08-06T23:58:58.922Z,80.70
